BAW24LV DAAG-EGKK
Flight info
| Callsign | BAW24LV |
|---|---|
| Flight time | N/A |
| Altitude | 36000 |
| Route | PECES DCT MAMOM DCT ELTAN DCT MHN DCT MEROS DCT LAPIT DCT CHELY DCT LUMAS DCT SOFFY DCT MRM DCT MTL DCT ETREK DCT MADOT DCT MOPEM DCT CACHI DCT AVLON DCT OKRIX DCT BRY DCT CLM DCT KOPOR DCT KESAX DCT KUNAV |
| Aircraft | A321/M-SDE3FGHIRWY/LB1 |
Departure
| Time | 2026-05-04 14:28 |
|---|---|
| Airport | Houari Boumediene Airport (DAAG) |
Arrival
| Time | N/A |
|---|---|
| Airport | London Gatwick Airport (EGKK) |
| Time | Latitude | Longitude | Altitude | Speed | Heading |
|---|---|---|---|---|---|
| 2026-05-04 14:11 | 36.69604 | 3.20283 | 68 ft | 0 kts | 318° |
| 2026-05-04 14:20 | 36.69595 | 3.20292 | 69 ft | 2 kts | 318° |
| 2026-05-04 14:21 | 36.69573 | 3.20317 | 69 ft | 2 kts | 318° |
| 2026-05-04 14:21 | 36.69562 | 3.20329 | 69 ft | 2 kts | 318° |
| 2026-05-04 14:21 | 36.69551 | 3.20342 | 70 ft | 2 kts | 318° |
| 2026-05-04 14:21 | 36.69539 | 3.20353 | 70 ft | 2 kts | 334° |
| 2026-05-04 14:22 | 36.69524 | 3.20360 | 70 ft | 2 kts | 345° |
| 2026-05-04 14:22 | 36.69510 | 3.20363 | 70 ft | 2 kts | 359° |
| 2026-05-04 14:22 | 36.69503 | 3.20363 | 70 ft | 1 kts | 5° |
| 2026-05-04 14:22 | 36.69500 | 3.20362 | 70 ft | 0 kts | 4° |
| 2026-05-04 14:24 | 36.69507 | 3.20363 | 70 ft | 4 kts | 2° |
| 2026-05-04 14:24 | 36.69566 | 3.20366 | 70 ft | 10 kts | 3° |
| 2026-05-04 14:24 | 36.69606 | 3.20425 | 70 ft | 10 kts | 99° |
| 2026-05-04 14:25 | 36.69602 | 3.20517 | 71 ft | 11 kts | 91° |
| 2026-05-04 14:25 | 36.69599 | 3.20720 | 72 ft | 12 kts | 91° |
| 2026-05-04 14:25 | 36.69556 | 3.20810 | 73 ft | 14 kts | 151° |
| 2026-05-04 14:26 | 36.69457 | 3.20849 | 73 ft | 15 kts | 163° |
| 2026-05-04 14:26 | 36.69356 | 3.20889 | 73 ft | 15 kts | 161° |
| 2026-05-04 14:26 | 36.69262 | 3.20930 | 73 ft | 10 kts | 160° |
| 2026-05-04 14:26 | 36.69188 | 3.20962 | 74 ft | 11 kts | 165° |
| 2026-05-04 14:27 | 36.69121 | 3.20949 | 74 ft | 9 kts | 252° |
| 2026-05-04 14:27 | 36.69123 | 3.20845 | 73 ft | 20 kts | 272° |
| 2026-05-04 14:27 | 36.69135 | 3.20374 | 71 ft | 91 kts | 272° |
| 2026-05-04 14:27 | 36.69161 | 3.19290 | 70 ft | 154 kts | 272° |
| 2026-05-04 14:28 | 36.69187 | 3.17855 | 468 ft | 170 kts | 273° |
| 2026-05-04 14:28 | 36.69231 | 3.16383 | 1083 ft | 175 kts | 274° |
| 2026-05-04 14:28 | 36.69295 | 3.14879 | 1704 ft | 177 kts | 279° |
| 2026-05-04 14:28 | 36.69817 | 3.13527 | 2034 ft | 181 kts | 322° |
| 2026-05-04 14:29 | 36.72270 | 3.13673 | 2507 ft | 202 kts | 41° |
| 2026-05-04 14:29 | 36.74298 | 3.16447 | 2986 ft | 237 kts | 48° |
| 2026-05-04 14:30 | 36.75471 | 3.18033 | 3327 ft | 255 kts | 48° |
| 2026-05-04 14:30 | 36.76855 | 3.19478 | 3723 ft | 271 kts | 28° |
| 2026-05-04 14:30 | 36.80486 | 3.21055 | 5130 ft | 281 kts | 17° |
| 2026-05-04 14:31 | 36.82372 | 3.21775 | 5841 ft | 286 kts | 17° |
| 2026-05-04 14:31 | 36.86186 | 3.23316 | 7234 ft | 297 kts | 18° |
| 2026-05-04 14:32 | 36.90160 | 3.25003 | 8704 ft | 306 kts | 17° |
| 2026-05-04 14:32 | 36.92180 | 3.25872 | 9459 ft | 311 kts | 16° |
| 2026-05-04 14:32 | 36.94243 | 3.26765 | 10127 ft | 316 kts | 16° |
| 2026-05-04 14:32 | 36.96369 | 3.27681 | 10586 ft | 329 kts | 15° |
| 2026-05-04 14:33 | 36.98590 | 3.28638 | 10932 ft | 346 kts | 15° |
| 2026-05-04 14:33 | 37.00890 | 3.29633 | 11470 ft | 354 kts | 15° |
| 2026-05-04 14:33 | 37.03217 | 3.30646 | 12112 ft | 358 kts | 15° |
| 2026-05-04 14:33 | 37.05581 | 3.31678 | 12788 ft | 362 kts | 14° |
| 2026-05-04 14:34 | 37.07982 | 3.32725 | 13417 ft | 366 kts | 14° |
| 2026-05-04 14:34 | 37.10393 | 3.33776 | 14036 ft | 370 kts | 14° |
| 2026-05-04 14:34 | 37.12818 | 3.34831 | 14608 ft | 374 kts | 14° |
| 2026-05-04 14:34 | 37.15287 | 3.35906 | 15197 ft | 377 kts | 14° |
| 2026-05-04 14:35 | 37.17788 | 3.36995 | 15795 ft | 381 kts | 14° |
| 2026-05-04 14:35 | 37.20279 | 3.38085 | 16373 ft | 384 kts | 14° |
| 2026-05-04 14:35 | 37.22814 | 3.39193 | 16963 ft | 386 kts | 14° |
| 2026-05-04 14:35 | 37.25377 | 3.40314 | 17504 ft | 389 kts | 14° |
| 2026-05-04 14:36 | 37.27939 | 3.41435 | 18035 ft | 392 kts | 14° |
| 2026-05-04 14:36 | 37.30515 | 3.42565 | 18593 ft | 395 kts | 14° |
| 2026-05-04 14:36 | 37.33114 | 3.43705 | 19135 ft | 397 kts | 14° |
| 2026-05-04 14:36 | 37.35702 | 3.44839 | 19666 ft | 399 kts | 14° |
| 2026-05-04 14:37 | 37.38341 | 3.45997 | 20203 ft | 401 kts | 14° |
| 2026-05-04 14:37 | 37.40989 | 3.47162 | 20710 ft | 404 kts | 14° |
| 2026-05-04 14:37 | 37.43650 | 3.48332 | 21208 ft | 406 kts | 14° |
| 2026-05-04 14:37 | 37.46318 | 3.49507 | 21685 ft | 409 kts | 14° |
| 2026-05-04 14:38 | 37.49007 | 3.50691 | 22141 ft | 412 kts | 14° |
| 2026-05-04 14:38 | 37.51705 | 3.51879 | 22588 ft | 415 kts | 14° |
| 2026-05-04 14:38 | 37.54462 | 3.53097 | 23025 ft | 418 kts | 14° |
| 2026-05-04 14:38 | 37.57176 | 3.54296 | 23459 ft | 420 kts | 14° |
| 2026-05-04 14:39 | 37.59943 | 3.55518 | 23907 ft | 423 kts | 14° |
| 2026-05-04 14:39 | 37.62745 | 3.56758 | 24356 ft | 425 kts | 14° |
| 2026-05-04 14:39 | 37.65507 | 3.57981 | 24769 ft | 427 kts | 14° |
| 2026-05-04 14:40 | 37.71172 | 3.60489 | 25551 ft | 433 kts | 14° |
| 2026-05-04 14:40 | 37.74020 | 3.61753 | 25946 ft | 436 kts | 14° |
| 2026-05-04 14:40 | 37.76890 | 3.63030 | 26339 ft | 438 kts | 14° |
| 2026-05-04 14:40 | 37.79767 | 3.64309 | 26703 ft | 441 kts | 14° |
| 2026-05-04 14:41 | 37.82656 | 3.65593 | 27100 ft | 443 kts | 15° |
| 2026-05-04 14:41 | 37.85564 | 3.66888 | 27445 ft | 446 kts | 15° |
| 2026-05-04 14:41 | 37.91372 | 3.69477 | 28112 ft | 450 kts | 15° |
| 2026-05-04 14:42 | 37.97178 | 3.72071 | 28737 ft | 455 kts | 15° |
| 2026-05-04 14:42 | 38.00125 | 3.73389 | 29064 ft | 457 kts | 15° |
| 2026-05-04 14:42 | 38.03146 | 3.74741 | 29379 ft | 459 kts | 15° |
| 2026-05-04 14:43 | 38.06177 | 3.76099 | 29675 ft | 461 kts | 15° |
| 2026-05-04 14:43 | 38.09193 | 3.77451 | 29920 ft | 465 kts | 15° |
| 2026-05-04 14:43 | 38.12245 | 3.78821 | 30186 ft | 467 kts | 15° |
| 2026-05-04 14:43 | 38.15356 | 3.80218 | 30445 ft | 470 kts | 15° |
| 2026-05-04 14:44 | 38.18423 | 3.81596 | 30730 ft | 471 kts | 15° |
| 2026-05-04 14:44 | 38.21519 | 3.82990 | 31036 ft | 472 kts | 15° |
| 2026-05-04 14:44 | 38.24605 | 3.84382 | 31335 ft | 473 kts | 15° |
| 2026-05-04 14:44 | 38.27719 | 3.85786 | 31706 ft | 472 kts | 14° |
| 2026-05-04 14:45 | 38.30821 | 3.87186 | 32104 ft | 471 kts | 14° |
| 2026-05-04 14:45 | 38.33894 | 3.88573 | 32455 ft | 470 kts | 14° |
| 2026-05-04 14:45 | 38.36957 | 3.89958 | 32798 ft | 470 kts | 14° |
| 2026-05-04 14:45 | 38.40034 | 3.91352 | 33133 ft | 469 kts | 14° |
| 2026-05-04 14:46 | 38.43080 | 3.92729 | 33476 ft | 468 kts | 14° |
| 2026-05-04 14:46 | 38.46190 | 3.94026 | 33809 ft | 465 kts | 11° |
| 2026-05-04 14:46 | 38.49277 | 3.95061 | 34114 ft | 461 kts | 6° |
| 2026-05-04 14:46 | 38.52421 | 3.95846 | 34395 ft | 457 kts | 2° |
| 2026-05-04 14:47 | 38.55553 | 3.96462 | 34596 ft | 457 kts | 1° |
| 2026-05-04 14:47 | 38.58696 | 3.97043 | 34747 ft | 459 kts | 1° |
| 2026-05-04 14:47 | 38.61866 | 3.97625 | 34925 ft | 460 kts | 1° |
| 2026-05-04 14:47 | 38.65012 | 3.98207 | 35116 ft | 461 kts | 1° |
| 2026-05-04 14:48 | 38.68188 | 3.98801 | 35320 ft | 462 kts | 1° |
| 2026-05-04 14:48 | 38.71356 | 3.99398 | 35521 ft | 462 kts | 2° |
| 2026-05-04 14:48 | 38.74539 | 4.00001 | 35709 ft | 462 kts | 2° |
| 2026-05-04 14:48 | 38.77739 | 4.00611 | 35871 ft | 463 kts | 1° |
| 2026-05-04 14:49 | 38.80903 | 4.01213 | 35989 ft | 464 kts | 1° |
| 2026-05-04 14:49 | 38.84084 | 4.01820 | 35997 ft | 464 kts | 2° |
| 2026-05-04 14:49 | 38.90476 | 4.03040 | 36009 ft | 465 kts | 1° |
| 2026-05-04 14:50 | 38.96895 | 4.04270 | 36016 ft | 466 kts | 1° |
| 2026-05-04 14:50 | 39.03298 | 4.05498 | 36002 ft | 466 kts | 1° |
| 2026-05-04 14:51 | 39.09674 | 4.06722 | 35995 ft | 466 kts | 1° |
| 2026-05-04 14:51 | 39.16091 | 4.07957 | 35990 ft | 466 kts | 1° |
| 2026-05-04 14:52 | 39.22484 | 4.09190 | 35987 ft | 466 kts | 1° |
| 2026-05-04 14:52 | 39.28907 | 4.10430 | 35988 ft | 466 kts | 1° |
| 2026-05-04 14:53 | 39.35298 | 4.11668 | 35989 ft | 465 kts | 1° |
| 2026-05-04 14:53 | 39.41703 | 4.12908 | 35983 ft | 465 kts | 1° |
| 2026-05-04 14:54 | 39.48116 | 4.14154 | 35982 ft | 466 kts | 1° |
| 2026-05-04 14:54 | 39.54503 | 4.15396 | 35978 ft | 465 kts | 1° |
| 2026-05-04 14:55 | 39.60911 | 4.16645 | 35975 ft | 467 kts | 1° |
| 2026-05-04 14:55 | 39.67317 | 4.17896 | 35974 ft | 466 kts | 1° |
| 2026-05-04 14:56 | 39.73757 | 4.19156 | 35972 ft | 467 kts | 2° |
| 2026-05-04 14:56 | 39.80170 | 4.20414 | 35972 ft | 466 kts | 2° |
| 2026-05-04 14:57 | 39.86630 | 4.21679 | 35971 ft | 474 kts | 2° |
| 2026-05-04 14:57 | 39.93217 | 4.23180 | 35972 ft | 484 kts | 4° |
| 2026-05-04 14:58 | 39.99876 | 4.24772 | 35970 ft | 493 kts | 4° |
| 2026-05-04 14:58 | 40.06678 | 4.26386 | 35969 ft | 499 kts | 4° |
| 2026-05-04 14:59 | 40.13507 | 4.28000 | 35970 ft | 500 kts | 3° |
| 2026-05-04 15:00 | 40.23778 | 4.30427 | 35966 ft | 500 kts | 4° |
| 2026-05-04 15:00 | 40.30581 | 4.32036 | 35968 ft | 502 kts | 4° |
| 2026-05-04 15:01 | 40.40919 | 4.34492 | 35964 ft | 502 kts | 4° |
| 2026-05-04 15:01 | 40.47814 | 4.36134 | 35956 ft | 503 kts | 4° |
| 2026-05-04 15:02 | 40.54683 | 4.37772 | 35959 ft | 504 kts | 4° |
| 2026-05-04 15:02 | 40.61579 | 4.39419 | 35956 ft | 505 kts | 4° |
| 2026-05-04 15:03 | 40.68521 | 4.41080 | 35949 ft | 508 kts | 4° |
| 2026-05-04 15:03 | 40.75486 | 4.42756 | 35961 ft | 507 kts | 4° |
| 2026-05-04 15:04 | 40.82388 | 4.44417 | 35953 ft | 507 kts | 4° |
| 2026-05-04 15:04 | 40.89377 | 4.46098 | 35953 ft | 509 kts | 4° |
| 2026-05-04 15:05 | 40.96326 | 4.47785 | 35956 ft | 508 kts | 4° |
| 2026-05-04 15:05 | 41.03278 | 4.49474 | 35945 ft | 508 kts | 4° |
| 2026-05-04 15:06 | 41.10199 | 4.51153 | 35945 ft | 508 kts | 4° |
| 2026-05-04 15:07 | 41.20671 | 4.53705 | 35942 ft | 510 kts | 4° |
| 2026-05-04 15:07 | 41.27616 | 4.55404 | 35942 ft | 509 kts | 4° |
| 2026-05-04 15:08 | 41.34573 | 4.57111 | 35943 ft | 509 kts | 4° |
| 2026-05-04 15:08 | 41.41547 | 4.58821 | 35946 ft | 509 kts | 4° |
| 2026-05-04 15:09 | 41.48513 | 4.60531 | 35944 ft | 510 kts | 4° |
| 2026-05-04 15:09 | 41.55465 | 4.62245 | 35941 ft | 511 kts | 4° |
| 2026-05-04 15:10 | 41.65921 | 4.64835 | 35935 ft | 510 kts | 4° |
| 2026-05-04 15:11 | 41.76399 | 4.67824 | 35933 ft | 516 kts | 10° |
| 2026-05-04 15:11 | 41.83263 | 4.70496 | 35929 ft | 516 kts | 11° |
| 2026-05-04 15:12 | 41.90132 | 4.73228 | 35929 ft | 516 kts | 11° |
| 2026-05-04 15:12 | 41.97035 | 4.75959 | 35930 ft | 517 kts | 11° |
| 2026-05-04 15:13 | 42.03921 | 4.78679 | 35938 ft | 516 kts | 11° |
| 2026-05-04 15:13 | 42.10840 | 4.81416 | 35950 ft | 515 kts | 11° |